Montello, WI (53949)

1:29 PM CST on December 20, 2014 (GMT -0600)
Rural Budsin | Change Station
CLOSE
Current Station
Personal Weather Station
Location: Neshkoro, WI
Elevation: 932 ft
Nearby Weather Stations

Elev 932 ft 43.93 °N, 89.35 °W | Updated 2 minutes ago

Overcast
Overcast
30.1 °F
Feels Like 30 °F
N
3.0
Wind Variable Wind from SSE
Gusts 5.0 mph

Today
High -- | Low -- °F
--% Chance of Precip.
Yesterday
High -- | Low -- °F
Precip. -- in
7:27 AM 4:22 PM
Waning Crescent, 2% visible
Pressure 30.22 in
Visibility 8.0 miles
Clouds Few 1200 ft
Overcast 2800 ft
Windchill 30 °F
Dew Point 27 °F
Humidity 87%
Rainfall 0.00 in
Snow Depth Not available.
UV 0 out of 12
Pollen .10 out of 12
Air Quality Not available.
Flu Activity Not available.
SPECI KY50 201923Z AUTO 19004KT 8SM FEW012 OVC028 M01/M03 A3022 RMK AO2 TSNO

More Conditions Fewer Conditions

Pressure 30.22 in
Visibility 8.0 miles
Clouds Few 1200 ft
Overcast 2800 ft
Windchill 30 °F
Dew Point 27 °F
Humidity 87%
Rainfall 0.00 in
Snow Depth Not available.
UV 0 out of 12
Pollen .10 out of 12
Air Quality Not available.
Flu Activity Not available.
SPECI KY50 201923Z AUTO 19004KT 8SM FEW012 OVC028 M01/M03 A3022 RMK AO2 TSNO

More Conditions Fewer Conditions

10-Day Weather Forecast

Almanac

Astronomy

Dec. 20, 2014 Rise Set
Actual Time
Civil Twilight
Nautical Twilight
Astronomical Twilight
Moon
Length of Visible Light
Length of Day
Tomorrow will be .
, % of the Moon is Illuminated

Today's Extremes

State Highs State Lows

Community

WunderPhotos

Upload Photos

1,779,256 photos uploaded!

WunderBlogs® & News

Nearby

Air Quality

  Air Quality AQ Index Pollutant
Not available.

Snow Depth

Station Depth Elevation

Earthquake Activity

City Distance Mag. Time & Date
Minimum magnitude displayed is 2.5.

Coastal Water Temperatures

Place Temperature

Nearby Weather Stations